sensor_id;sensor_type;location;lat;lon;timestamp;P1;durP1;ratioP1;P2;durP2;ratioP2
41333;SDS011;27078;46.428;6.256;2023-02-11T00:00:22;18.73;;;8.88;;
41333;SDS011;27078;46.428;6.256;2023-02-11T00:02:47;19.58;;;10.30;;
41333;SDS011;27078;46.428;6.256;2023-02-11T00:05:13;17.92;;;10.00;;
41333;SDS011;27078;46.428;6.256;2023-02-11T00:07:38;17.77;;;9.60;;
41333;SDS011;27078;46.428;6.256;2023-02-11T00:10:04;21.63;;;10.18;;
41333;SDS011;27078;46.428;6.256;2023-02-11T00:12:32;19.80;;;10.07;;
41333;SDS011;27078;46.428;6.256;2023-02-11T00:14:59;20.95;;;10.10;;
41333;SDS011;27078;46.428;6.256;2023-02-11T00:17:24;21.67;;;10.57;;
41333;SDS011;27078;46.428;6.256;2023-02-11T00:19:50;21.55;;;10.55;;
41333;SDS011;27078;46.428;6.256;2023-02-11T00:22:16;19.92;;;10.77;;
41333;SDS011;27078;46.428;6.256;2023-02-11T00:24:41;19.08;;;10.20;;
41333;SDS011;27078;46.428;6.256;2023-02-11T00:27:07;19.63;;;10.55;;
41333;SDS011;27078;46.428;6.256;2023-02-11T00:29:32;20.45;;;9.77;;
41333;SDS011;27078;46.428;6.256;2023-02-11T00:31:57;22.08;;;10.55;;
41333;SDS011;27078;46.428;6.256;2023-02-11T00:34:23;20.05;;;9.40;;
41333;SDS011;27078;46.428;6.256;2023-02-11T00:36:48;19.42;;;9.55;;
41333;SDS011;27078;46.428;6.256;2023-02-11T00:39:14;17.98;;;9.10;;
41333;SDS011;27078;46.428;6.256;2023-02-11T00:41:39;18.85;;;9.68;;
41333;SDS011;27078;46.428;6.256;2023-02-11T00:44:05;18.23;;;9.48;;
41333;SDS011;27078;46.428;6.256;2023-02-11T00:46:31;17.55;;;9.77;;
41333;SDS011;27078;46.428;6.256;2023-02-11T00:48:56;18.63;;;9.95;;
41333;SDS011;27078;46.428;6.256;2023-02-11T00:51:24;26.92;;;12.77;;
41333;SDS011;27078;46.428;6.256;2023-02-11T00:53:51;19.88;;;10.48;;
41333;SDS011;27078;46.428;6.256;2023-02-11T00:56:16;20.92;;;10.25;;
41333;SDS011;27078;46.428;6.256;2023-02-11T00:58:42;21.30;;;10.48;;
41333;SDS011;27078;46.428;6.256;2023-02-11T01:01:07;18.00;;;9.45;;
41333;SDS011;27078;46.428;6.256;2023-02-11T01:03:33;18.02;;;9.70;;
41333;SDS011;27078;46.428;6.256;2023-02-11T01:05:59;19.90;;;10.05;;
41333;SDS011;27078;46.428;6.256;2023-02-11T01:08:24;18.40;;;8.75;;
41333;SDS011;27078;46.428;6.256;2023-02-11T01:10:53;18.33;;;8.63;;
41333;SDS011;27078;46.428;6.256;2023-02-11T01:13:23;15.90;;;8.35;;
41333;SDS011;27078;46.428;6.256;2023-02-11T01:15:48;16.45;;;8.50;;
41333;SDS011;27078;46.428;6.256;2023-02-11T01:18:14;15.52;;;7.90;;
41333;SDS011;27078;46.428;6.256;2023-02-11T01:20:39;13.98;;;7.43;;
41333;SDS011;27078;46.428;6.256;2023-02-11T01:23:04;14.65;;;7.20;;
41333;SDS011;27078;46.428;6.256;2023-02-11T01:25:30;14.13;;;7.07;;
41333;SDS011;27078;46.428;6.256;2023-02-11T01:27:55;14.70;;;7.05;;
41333;SDS011;27078;46.428;6.256;2023-02-11T01:30:20;13.38;;;6.80;;
41333;SDS011;27078;46.428;6.256;2023-02-11T01:32:46;13.80;;;6.70;;
41333;SDS011;27078;46.428;6.256;2023-02-11T01:35:11;13.70;;;6.80;;
41333;SDS011;27078;46.428;6.256;2023-02-11T01:37:36;11.75;;;6.07;;
41333;SDS011;27078;46.428;6.256;2023-02-11T01:40:05;11.95;;;6.50;;
41333;SDS011;27078;46.428;6.256;2023-02-11T01:42:35;11.93;;;5.57;;
41333;SDS011;27078;46.428;6.256;2023-02-11T01:45:03;13.57;;;6.22;;
41333;SDS011;27078;46.428;6.256;2023-02-11T01:48:05;11.63;;;6.35;;
41333;SDS011;27078;46.428;6.256;2023-02-11T01:50:31;17.40;;;7.55;;
41333;SDS011;27078;46.428;6.256;2023-02-11T01:52:58;13.57;;;7.22;;
41333;SDS011;27078;46.428;6.256;2023-02-11T01:55:43;16.48;;;8.32;;
41333;SDS011;27078;46.428;6.256;2023-02-11T01:58:28;14.75;;;7.30;;
41333;SDS011;27078;46.428;6.256;2023-02-11T02:00:56;13.43;;;6.75;;
41333;SDS011;27078;46.428;6.256;2023-02-11T02:03:23;15.50;;;7.53;;
41333;SDS011;27078;46.428;6.256;2023-02-11T02:05:54;14.45;;;7.30;;
41333;SDS011;27078;46.428;6.256;2023-02-11T02:11:02;14.95;;;7.63;;
41333;SDS011;27078;46.428;6.256;2023-02-11T02:13:30;14.25;;;7.05;;
41333;SDS011;27078;46.428;6.256;2023-02-11T02:15:58;13.93;;;7.00;;
41333;SDS011;27078;46.428;6.256;2023-02-11T02:21:21;13.00;;;6.60;;
41333;SDS011;27078;46.428;6.256;2023-02-11T02:29:48;14.60;;;7.07;;
41333;SDS011;27078;46.428;6.256;2023-02-11T02:32:22;13.60;;;6.70;;
41333;SDS011;27078;46.428;6.256;2023-02-11T02:37:36;13.10;;;7.03;;
41333;SDS011;27078;46.428;6.256;2023-02-11T02:40:19;14.15;;;7.32;;
41333;SDS011;27078;46.428;6.256;2023-02-11T02:42:47;15.07;;;7.85;;
41333;SDS011;27078;46.428;6.256;2023-02-11T02:45:14;14.65;;;7.68;;
41333;SDS011;27078;46.428;6.256;2023-02-11T02:47:40;16.67;;;8.18;;
41333;SDS011;27078;46.428;6.256;2023-02-11T02:50:06;14.60;;;7.78;;
41333;SDS011;27078;46.428;6.256;2023-02-11T02:52:34;17.15;;;8.85;;
41333;SDS011;27078;46.428;6.256;2023-02-11T02:55:11;16.80;;;8.90;;
41333;SDS011;27078;46.428;6.256;2023-02-11T03:03:29;15.63;;;7.72;;
41333;SDS011;27078;46.428;6.256;2023-02-11T03:06:07;15.10;;;8.43;;
41333;SDS011;27078;46.428;6.256;2023-02-11T03:08:38;14.23;;;7.45;;
41333;SDS011;27078;46.428;6.256;2023-02-11T03:11:08;16.48;;;7.97;;
41333;SDS011;27078;46.428;6.256;2023-02-11T03:13:36;15.88;;;8.18;;
41333;SDS011;27078;46.428;6.256;2023-02-11T03:16:07;16.27;;;8.48;;
41333;SDS011;27078;46.428;6.256;2023-02-11T03:18:38;15.80;;;8.27;;
41333;SDS011;27078;46.428;6.256;2023-02-11T03:21:08;16.77;;;8.73;;
41333;SDS011;27078;46.428;6.256;2023-02-11T03:23:40;17.45;;;9.30;;
41333;SDS011;27078;46.428;6.256;2023-02-11T03:26:17;19.95;;;10.00;;
41333;SDS011;27078;46.428;6.256;2023-02-11T03:31:41;20.60;;;9.82;;
41333;SDS011;27078;46.428;6.256;2023-02-11T03:34:26;21.00;;;9.48;;
41333;SDS011;27078;46.428;6.256;2023-02-11T03:37:01;20.45;;;10.15;;
41333;SDS011;27078;46.428;6.256;2023-02-11T03:39:34;21.27;;;10.25;;
41333;SDS011;27078;46.428;6.256;2023-02-11T03:42:02;20.48;;;10.23;;
41333;SDS011;27078;46.428;6.256;2023-02-11T03:44:31;17.20;;;9.55;;
41333;SDS011;27078;46.428;6.256;2023-02-11T03:47:00;20.40;;;9.95;;
41333;SDS011;27078;46.428;6.256;2023-02-11T03:49:31;19.10;;;9.80;;
41333;SDS011;27078;46.428;6.256;2023-02-11T03:52:00;17.45;;;8.93;;
41333;SDS011;27078;46.428;6.256;2023-02-11T03:54:28;20.83;;;10.00;;
41333;SDS011;27078;46.428;6.256;2023-02-11T03:56:55;21.92;;;9.38;;
41333;SDS011;27078;46.428;6.256;2023-02-11T03:59:23;19.17;;;9.95;;
41333;SDS011;27078;46.428;6.256;2023-02-11T04:01:49;20.88;;;9.60;;
41333;SDS011;27078;46.428;6.256;2023-02-11T04:04:15;18.15;;;9.82;;
41333;SDS011;27078;46.428;6.256;2023-02-11T04:06:40;15.75;;;8.13;;
41333;SDS011;27078;46.428;6.256;2023-02-11T04:09:07;16.02;;;8.23;;
41333;SDS011;27078;46.428;6.256;2023-02-11T04:11:33;16.67;;;9.32;;
41333;SDS011;27078;46.428;6.256;2023-02-11T04:13:58;18.52;;;9.35;;
41333;SDS011;27078;46.428;6.256;2023-02-11T04:16:23;21.27;;;9.50;;
41333;SDS011;27078;46.428;6.256;2023-02-11T04:18:49;18.35;;;9.45;;
41333;SDS011;27078;46.428;6.256;2023-02-11T04:21:14;17.58;;;8.55;;
41333;SDS011;27078;46.428;6.256;2023-02-11T04:23:39;21.77;;;10.38;;
41333;SDS011;27078;46.428;6.256;2023-02-11T04:26:05;22.02;;;10.90;;
41333;SDS011;27078;46.428;6.256;2023-02-11T04:28:30;21.20;;;9.80;;
41333;SDS011;27078;46.428;6.256;2023-02-11T04:30:56;19.40;;;9.98;;
41333;SDS011;27078;46.428;6.256;2023-02-11T04:33:22;18.73;;;10.20;;
41333;SDS011;27078;46.428;6.256;2023-02-11T04:35:48;19.67;;;9.05;;
41333;SDS011;27078;46.428;6.256;2023-02-11T04:38:14;18.80;;;8.75;;
41333;SDS011;27078;46.428;6.256;2023-02-11T04:40:40;17.65;;;9.45;;
41333;SDS011;27078;46.428;6.256;2023-02-11T04:43:05;19.10;;;9.75;;
41333;SDS011;27078;46.428;6.256;2023-02-11T04:45:31;21.05;;;10.68;;
41333;SDS011;27078;46.428;6.256;2023-02-11T04:47:57;21.73;;;10.85;;
41333;SDS011;27078;46.428;6.256;2023-02-11T04:50:23;20.75;;;10.82;;
41333;SDS011;27078;46.428;6.256;2023-02-11T04:52:48;21.67;;;10.73;;
41333;SDS011;27078;46.428;6.256;2023-02-11T04:55:14;21.00;;;10.00;;
41333;SDS011;27078;46.428;6.256;2023-02-11T04:57:39;20.17;;;9.85;;
41333;SDS011;27078;46.428;6.256;2023-02-11T05:00:05;20.88;;;10.32;;
41333;SDS011;27078;46.428;6.256;2023-02-11T05:02:31;20.63;;;10.18;;
41333;SDS011;27078;46.428;6.256;2023-02-11T05:04:57;18.20;;;9.23;;
41333;SDS011;27078;46.428;6.256;2023-02-11T05:07:22;15.55;;;8.52;;
41333;SDS011;27078;46.428;6.256;2023-02-11T05:09:47;20.95;;;9.20;;
41333;SDS011;27078;46.428;6.256;2023-02-11T05:12:13;17.60;;;8.80;;
41333;SDS011;27078;46.428;6.256;2023-02-11T05:14:38;17.98;;;8.40;;
41333;SDS011;27078;46.428;6.256;2023-02-11T05:17:04;16.75;;;8.55;;
41333;SDS011;27078;46.428;6.256;2023-02-11T05:19:29;17.48;;;8.35;;
41333;SDS011;27078;46.428;6.256;2023-02-11T05:21:56;16.15;;;8.38;;
41333;SDS011;27078;46.428;6.256;2023-02-11T05:24:21;14.23;;;7.80;;
41333;SDS011;27078;46.428;6.256;2023-02-11T05:26:46;15.80;;;8.18;;
41333;SDS011;27078;46.428;6.256;2023-02-11T05:29:11;17.50;;;8.30;;
41333;SDS011;27078;46.428;6.256;2023-02-11T05:31:37;18.50;;;8.98;;
41333;SDS011;27078;46.428;6.256;2023-02-11T05:34:02;19.08;;;9.15;;
41333;SDS011;27078;46.428;6.256;2023-02-11T05:36:28;17.00;;;9.05;;
41333;SDS011;27078;46.428;6.256;2023-02-11T05:38:54;18.98;;;9.50;;
41333;SDS011;27078;46.428;6.256;2023-02-11T05:41:19;17.40;;;9.13;;
41333;SDS011;27078;46.428;6.256;2023-02-11T05:43:46;20.38;;;10.70;;
41333;SDS011;27078;46.428;6.256;2023-02-11T05:46:15;21.40;;;10.38;;
41333;SDS011;27078;46.428;6.256;2023-02-11T05:48:40;20.50;;;10.32;;
41333;SDS011;27078;46.428;6.256;2023-02-11T05:51:06;22.33;;;11.43;;
41333;SDS011;27078;46.428;6.256;2023-02-11T05:53:31;22.67;;;10.73;;
41333;SDS011;27078;46.428;6.256;2023-02-11T05:55:56;22.63;;;11.35;;
41333;SDS011;27078;46.428;6.256;2023-02-11T05:58:22;20.55;;;10.73;;
41333;SDS011;27078;46.428;6.256;2023-02-11T06:00:47;21.63;;;10.80;;
41333;SDS011;27078;46.428;6.256;2023-02-11T06:03:12;26.10;;;11.77;;
41333;SDS011;27078;46.428;6.256;2023-02-11T06:05:38;23.70;;;12.18;;
41333;SDS011;27078;46.428;6.256;2023-02-11T06:08:03;25.08;;;13.18;;
41333;SDS011;27078;46.428;6.256;2023-02-11T06:10:29;26.83;;;13.05;;
41333;SDS011;27078;46.428;6.256;2023-02-11T06:12:54;23.95;;;12.95;;
41333;SDS011;27078;46.428;6.256;2023-02-11T06:15:19;23.90;;;11.52;;
41333;SDS011;27078;46.428;6.256;2023-02-11T06:17:44;24.98;;;12.57;;
41333;SDS011;27078;46.428;6.256;2023-02-11T06:20:10;25.73;;;12.25;;
41333;SDS011;27078;46.428;6.256;2023-02-11T06:22:36;25.10;;;12.90;;
41333;SDS011;27078;46.428;6.256;2023-02-11T06:25:01;25.67;;;12.88;;
41333;SDS011;27078;46.428;6.256;2023-02-11T06:27:27;28.45;;;14.23;;
41333;SDS011;27078;46.428;6.256;2023-02-11T06:29:53;24.73;;;13.00;;
41333;SDS011;27078;46.428;6.256;2023-02-11T06:32:19;30.65;;;15.25;;
41333;SDS011;27078;46.428;6.256;2023-02-11T06:34:45;28.85;;;13.48;;
41333;SDS011;27078;46.428;6.256;2023-02-11T06:37:10;27.00;;;13.75;;
41333;SDS011;27078;46.428;6.256;2023-02-11T06:39:36;28.67;;;13.65;;
41333;SDS011;27078;46.428;6.256;2023-02-11T06:42:01;28.05;;;14.05;;
41333;SDS011;27078;46.428;6.256;2023-02-11T06:44:27;28.45;;;14.45;;
41333;SDS011;27078;46.428;6.256;2023-02-11T06:46:52;28.02;;;14.15;;
41333;SDS011;27078;46.428;6.256;2023-02-11T06:49:18;27.92;;;14.40;;
41333;SDS011;27078;46.428;6.256;2023-02-11T06:51:43;33.08;;;15.00;;
41333;SDS011;27078;46.428;6.256;2023-02-11T06:54:09;31.63;;;14.50;;
41333;SDS011;27078;46.428;6.256;2023-02-11T06:56:37;29.80;;;15.45;;
41333;SDS011;27078;46.428;6.256;2023-02-11T06:59:03;28.52;;;14.55;;
41333;SDS011;27078;46.428;6.256;2023-02-11T07:01:29;30.00;;;14.82;;
41333;SDS011;27078;46.428;6.256;2023-02-11T07:03:54;30.15;;;14.15;;
41333;SDS011;27078;46.428;6.256;2023-02-11T07:06:20;27.73;;;13.55;;
41333;SDS011;27078;46.428;6.256;2023-02-11T07:08:48;26.20;;;13.10;;
41333;SDS011;27078;46.428;6.256;2023-02-11T07:11:18;26.88;;;13.93;;
41333;SDS011;27078;46.428;6.256;2023-02-11T07:13:45;29.98;;;13.95;;
41333;SDS011;27078;46.428;6.256;2023-02-11T07:16:13;27.42;;;13.65;;
41333;SDS011;27078;46.428;6.256;2023-02-11T07:18:39;30.27;;;14.20;;
41333;SDS011;27078;46.428;6.256;2023-02-11T07:21:06;28.70;;;14.60;;
41333;SDS011;27078;46.428;6.256;2023-02-11T07:23:33;28.08;;;14.13;;
41333;SDS011;27078;46.428;6.256;2023-02-11T07:26:03;28.60;;;13.10;;
41333;SDS011;27078;46.428;6.256;2023-02-11T07:28:29;26.90;;;14.00;;
41333;SDS011;27078;46.428;6.256;2023-02-11T07:30:54;26.08;;;13.32;;
41333;SDS011;27078;46.428;6.256;2023-02-11T07:33:20;25.67;;;13.68;;
41333;SDS011;27078;46.428;6.256;2023-02-11T07:35:45;27.08;;;13.80;;
41333;SDS011;27078;46.428;6.256;2023-02-11T07:38:10;30.60;;;14.93;;
41333;SDS011;27078;46.428;6.256;2023-02-11T07:40:36;27.70;;;14.38;;
41333;SDS011;27078;46.428;6.256;2023-02-11T07:43:01;29.88;;;15.07;;
41333;SDS011;27078;46.428;6.256;2023-02-11T07:45:26;28.58;;;14.98;;
41333;SDS011;27078;46.428;6.256;2023-02-11T07:47:52;27.08;;;14.13;;
41333;SDS011;27078;46.428;6.256;2023-02-11T07:50:17;28.02;;;14.60;;
41333;SDS011;27078;46.428;6.256;2023-02-11T07:52:43;26.35;;;13.45;;
41333;SDS011;27078;46.428;6.256;2023-02-11T07:55:08;26.70;;;13.27;;
41333;SDS011;27078;46.428;6.256;2023-02-11T07:57:34;30.77;;;14.45;;
41333;SDS011;27078;46.428;6.256;2023-02-11T08:00:00;23.83;;;11.98;;
41333;SDS011;27078;46.428;6.256;2023-02-11T08:02:25;23.33;;;12.07;;
41333;SDS011;27078;46.428;6.256;2023-02-11T08:04:51;23.10;;;11.40;;
41333;SDS011;27078;46.428;6.256;2023-02-11T08:07:16;24.70;;;12.38;;
41333;SDS011;27078;46.428;6.256;2023-02-11T08:09:42;23.92;;;11.95;;
41333;SDS011;27078;46.428;6.256;2023-02-11T08:12:07;22.77;;;11.75;;
41333;SDS011;27078;46.428;6.256;2023-02-11T08:14:33;24.48;;;11.20;;
41333;SDS011;27078;46.428;6.256;2023-02-11T08:16:58;27.48;;;12.65;;
41333;SDS011;27078;46.428;6.256;2023-02-11T08:19:24;24.17;;;13.50;;
41333;SDS011;27078;46.428;6.256;2023-02-11T08:21:49;30.02;;;14.98;;
41333;SDS011;27078;46.428;6.256;2023-02-11T08:24:14;31.35;;;16.45;;
41333;SDS011;27078;46.428;6.256;2023-02-11T08:26:40;31.63;;;16.95;;
41333;SDS011;27078;46.428;6.256;2023-02-11T08:29:10;32.85;;;16.63;;
41333;SDS011;27078;46.428;6.256;2023-02-11T08:31:37;35.28;;;18.23;;
41333;SDS011;27078;46.428;6.256;2023-02-11T08:34:04;38.22;;;20.95;;
41333;SDS011;27078;46.428;6.256;2023-02-11T08:36:31;40.28;;;19.92;;
41333;SDS011;27078;46.428;6.256;2023-02-11T08:38:59;36.70;;;19.38;;
41333;SDS011;27078;46.428;6.256;2023-02-11T08:41:29;36.05;;;18.38;;
41333;SDS011;27078;46.428;6.256;2023-02-11T08:43:55;37.88;;;20.33;;
41333;SDS011;27078;46.428;6.256;2023-02-11T08:46:20;38.30;;;20.52;;
41333;SDS011;27078;46.428;6.256;2023-02-11T08:48:46;39.63;;;20.80;;
41333;SDS011;27078;46.428;6.256;2023-02-11T08:51:13;37.35;;;20.45;;
41333;SDS011;27078;46.428;6.256;2023-02-11T08:53:43;41.92;;;22.30;;
41333;SDS011;27078;46.428;6.256;2023-02-11T08:56:10;45.92;;;24.25;;
41333;SDS011;27078;46.428;6.256;2023-02-11T08:58:36;43.83;;;24.02;;
41333;SDS011;27078;46.428;6.256;2023-02-11T09:01:07;46.58;;;25.33;;
41333;SDS011;27078;46.428;6.256;2023-02-11T09:03:37;50.45;;;25.23;;
41333;SDS011;27078;46.428;6.256;2023-02-11T09:06:03;48.78;;;25.13;;
41333;SDS011;27078;46.428;6.256;2023-02-11T09:08:30;48.83;;;26.35;;
41333;SDS011;27078;46.428;6.256;2023-02-11T09:10:55;44.75;;;25.05;;
41333;SDS011;27078;46.428;6.256;2023-02-11T09:13:21;48.22;;;26.92;;
41333;SDS011;27078;46.428;6.256;2023-02-11T09:15:46;44.50;;;24.67;;
41333;SDS011;27078;46.428;6.256;2023-02-11T09:18:12;50.40;;;27.50;;
41333;SDS011;27078;46.428;6.256;2023-02-11T09:20:38;48.13;;;26.05;;
41333;SDS011;27078;46.428;6.256;2023-02-11T09:23:03;47.45;;;26.15;;
41333;SDS011;27078;46.428;6.256;2023-02-11T09:25:28;45.55;;;25.38;;
41333;SDS011;27078;46.428;6.256;2023-02-11T09:27:54;45.60;;;24.90;;
41333;SDS011;27078;46.428;6.256;2023-02-11T09:30:19;46.10;;;24.88;;
41333;SDS011;27078;46.428;6.256;2023-02-11T09:32:45;51.22;;;26.00;;
41333;SDS011;27078;46.428;6.256;2023-02-11T09:35:10;49.33;;;26.20;;
41333;SDS011;27078;46.428;6.256;2023-02-11T09:37:35;43.95;;;24.70;;
41333;SDS011;27078;46.428;6.256;2023-02-11T09:40:01;47.50;;;26.40;;
41333;SDS011;27078;46.428;6.256;2023-02-11T09:45:01;42.00;;;23.00;;
41333;SDS011;27078;46.428;6.256;2023-02-11T09:47:31;42.03;;;23.98;;
41333;SDS011;27078;46.428;6.256;2023-02-11T09:50:01;44.38;;;24.83;;
41333;SDS011;27078;46.428;6.256;2023-02-11T09:52:31;45.63;;;25.13;;
41333;SDS011;27078;46.428;6.256;2023-02-11T09:55:00;41.67;;;23.98;;
41333;SDS011;27078;46.428;6.256;2023-02-11T09:57:31;43.80;;;24.92;;
41333;SDS011;27078;46.428;6.256;2023-02-11T09:59:59;43.35;;;25.48;;
41333;SDS011;27078;46.428;6.256;2023-02-11T10:02:55;40.67;;;23.10;;
41333;SDS011;27078;46.428;6.256;2023-02-11T10:05:33;43.47;;;23.92;;
41333;SDS011;27078;46.428;6.256;2023-02-11T10:25:07;40.60;;;23.63;;
41333;SDS011;27078;46.428;6.256;2023-02-11T10:28:00;39.38;;;23.60;;
41333;SDS011;27078;46.428;6.256;2023-02-11T10:30:37;39.88;;;22.58;;
41333;SDS011;27078;46.428;6.256;2023-02-11T10:35:39;42.20;;;24.20;;
41333;SDS011;27078;46.428;6.256;2023-02-11T10:38:07;43.47;;;25.27;;
41333;SDS011;27078;46.428;6.256;2023-02-11T10:40:33;41.50;;;24.88;;
41333;SDS011;27078;46.428;6.256;2023-02-11T10:42:59;44.35;;;24.77;;
41333;SDS011;27078;46.428;6.256;2023-02-11T10:45:31;42.67;;;24.63;;
41333;SDS011;27078;46.428;6.256;2023-02-11T10:48:00;43.92;;;24.77;;
41333;SDS011;27078;46.428;6.256;2023-02-11T10:50:28;40.72;;;24.30;;
41333;SDS011;27078;46.428;6.256;2023-02-11T10:55:54;44.00;;;24.88;;
41333;SDS011;27078;46.428;6.256;2023-02-11T10:58:27;40.35;;;24.13;;
41333;SDS011;27078;46.428;6.256;2023-02-11T11:00:55;42.50;;;24.93;;
41333;SDS011;27078;46.428;6.256;2023-02-11T11:03:24;42.00;;;24.23;;
41333;SDS011;27078;46.428;6.256;2023-02-11T11:06:02;43.03;;;25.05;;
41333;SDS011;27078;46.428;6.256;2023-02-11T11:08:43;43.42;;;25.08;;
41333;SDS011;27078;46.428;6.256;2023-02-11T11:11:18;44.08;;;25.80;;
41333;SDS011;27078;46.428;6.256;2023-02-11T11:16:21;44.40;;;25.38;;
41333;SDS011;27078;46.428;6.256;2023-02-11T11:18:49;47.42;;;25.27;;
41333;SDS011;27078;46.428;6.256;2023-02-11T11:21:41;41.50;;;24.95;;
41333;SDS011;27078;46.428;6.256;2023-02-11T11:29:16;41.10;;;25.13;;
41333;SDS011;27078;46.428;6.256;2023-02-11T11:36:52;38.78;;;24.20;;
41333;SDS011;27078;46.428;6.256;2023-02-11T11:39:21;40.22;;;23.90;;
41333;SDS011;27078;46.428;6.256;2023-02-11T11:53:10;40.83;;;24.33;;
41333;SDS011;27078;46.428;6.256;2023-02-11T11:55:42;42.03;;;24.35;;
41333;SDS011;27078;46.428;6.256;2023-02-11T11:58:12;40.47;;;24.27;;
41333;SDS011;27078;46.428;6.256;2023-02-11T12:19:45;43.20;;;25.58;;
41333;SDS011;27078;46.428;6.256;2023-02-11T12:33:49;38.15;;;23.23;;
41333;SDS011;27078;46.428;6.256;2023-02-11T12:47:44;38.17;;;24.52;;
41333;SDS011;27078;46.428;6.256;2023-02-11T12:53:24;41.47;;;24.80;;
41333;SDS011;27078;46.428;6.256;2023-02-11T12:55:57;40.15;;;25.27;;
41333;SDS011;27078;46.428;6.256;2023-02-11T12:58:29;41.20;;;24.52;;
41333;SDS011;27078;46.428;6.256;2023-02-11T13:01:01;42.42;;;25.05;;
41333;SDS011;27078;46.428;6.256;2023-02-11T13:03:42;37.75;;;22.50;;
41333;SDS011;27078;46.428;6.256;2023-02-11T13:06:13;35.30;;;22.42;;
41333;SDS011;27078;46.428;6.256;2023-02-11T13:08:45;37.40;;;23.08;;
41333;SDS011;27078;46.428;6.256;2023-02-11T13:11:14;36.70;;;23.25;;
41333;SDS011;27078;46.428;6.256;2023-02-11T13:16:24;41.15;;;24.48;;
41333;SDS011;27078;46.428;6.256;2023-02-11T13:24:25;36.85;;;22.42;;
41333;SDS011;27078;46.428;6.256;2023-02-11T13:32:23;38.63;;;24.63;;
41333;SDS011;27078;46.428;6.256;2023-02-11T13:39:56;41.03;;;24.75;;
41333;SDS011;27078;46.428;6.256;2023-02-11T13:42:22;40.05;;;24.55;;
41333;SDS011;27078;46.428;6.256;2023-02-11T13:44:47;40.17;;;24.52;;
41333;SDS011;27078;46.428;6.256;2023-02-11T13:47:23;40.00;;;24.95;;
41333;SDS011;27078;46.428;6.256;2023-02-11T13:49:57;39.88;;;25.10;;
41333;SDS011;27078;46.428;6.256;2023-02-11T13:52:28;41.17;;;25.10;;
41333;SDS011;27078;46.428;6.256;2023-02-11T13:54:54;45.55;;;25.77;;
41333;SDS011;27078;46.428;6.256;2023-02-11T13:57:26;41.70;;;24.83;;
41333;SDS011;27078;46.428;6.256;2023-02-11T13:59:57;39.70;;;23.73;;
41333;SDS011;27078;46.428;6.256;2023-02-11T14:02:28;38.80;;;23.42;;
41333;SDS011;27078;46.428;6.256;2023-02-11T14:08:12;40.58;;;25.75;;
41333;SDS011;27078;46.428;6.256;2023-02-11T14:16:21;40.92;;;24.95;;
41333;SDS011;27078;46.428;6.256;2023-02-11T14:21:29;40.75;;;24.70;;
41333;SDS011;27078;46.428;6.256;2023-02-11T14:29:14;45.75;;;26.08;;
41333;SDS011;27078;46.428;6.256;2023-02-11T14:40:00;41.75;;;26.27;;
41333;SDS011;27078;46.428;6.256;2023-02-11T14:42:34;44.90;;;27.40;;
41333;SDS011;27078;46.428;6.256;2023-02-11T14:45:03;40.78;;;26.27;;
41333;SDS011;27078;46.428;6.256;2023-02-11T14:50:19;42.75;;;25.08;;
41333;SDS011;27078;46.428;6.256;2023-02-11T14:52:50;41.10;;;24.55;;
41333;SDS011;27078;46.428;6.256;2023-02-11T14:58:13;41.67;;;25.45;;
41333;SDS011;27078;46.428;6.256;2023-02-11T15:00:57;39.63;;;24.60;;
41333;SDS011;27078;46.428;6.256;2023-02-11T15:03:29;40.35;;;24.70;;
41333;SDS011;27078;46.428;6.256;2023-02-11T15:05:58;38.30;;;23.30;;
41333;SDS011;27078;46.428;6.256;2023-02-11T15:08:25;38.97;;;24.05;;
41333;SDS011;27078;46.428;6.256;2023-02-11T15:10:52;36.72;;;23.88;;
41333;SDS011;27078;46.428;6.256;2023-02-11T15:13:20;39.25;;;25.10;;
41333;SDS011;27078;46.428;6.256;2023-02-11T15:15:54;43.97;;;25.75;;
41333;SDS011;27078;46.428;6.256;2023-02-11T15:18:26;40.70;;;25.88;;
41333;SDS011;27078;46.428;6.256;2023-02-11T15:20:59;42.58;;;25.50;;
41333;SDS011;27078;46.428;6.256;2023-02-11T15:23:25;41.17;;;26.25;;
41333;SDS011;27078;46.428;6.256;2023-02-11T15:25:52;40.22;;;25.90;;
41333;SDS011;27078;46.428;6.256;2023-02-11T15:28:21;44.10;;;26.33;;
41333;SDS011;27078;46.428;6.256;2023-02-11T15:30:56;43.08;;;25.55;;
41333;SDS011;27078;46.428;6.256;2023-02-11T15:35:49;43.75;;;25.40;;
41333;SDS011;27078;46.428;6.256;2023-02-11T15:38:15;41.83;;;25.83;;
41333;SDS011;27078;46.428;6.256;2023-02-11T15:40:50;43.00;;;25.75;;
41333;SDS011;27078;46.428;6.256;2023-02-11T15:43:17;42.13;;;25.90;;
41333;SDS011;27078;46.428;6.256;2023-02-11T15:45:43;43.20;;;26.40;;
41333;SDS011;27078;46.428;6.256;2023-02-11T15:50:54;41.42;;;25.63;;
41333;SDS011;27078;46.428;6.256;2023-02-11T15:55:51;42.58;;;26.02;;
41333;SDS011;27078;46.428;6.256;2023-02-11T15:58:26;40.60;;;24.38;;
41333;SDS011;27078;46.428;6.256;2023-02-11T16:00:52;40.92;;;24.55;;
41333;SDS011;27078;46.428;6.256;2023-02-11T16:03:24;38.67;;;24.17;;
41333;SDS011;27078;46.428;6.256;2023-02-11T16:05:56;42.35;;;24.63;;
41333;SDS011;27078;46.428;6.256;2023-02-11T16:08:24;38.75;;;23.85;;
41333;SDS011;27078;46.428;6.256;2023-02-11T16:10:56;44.70;;;25.98;;
41333;SDS011;27078;46.428;6.256;2023-02-11T16:13:27;41.60;;;25.27;;
41333;SDS011;27078;46.428;6.256;2023-02-11T16:16:01;41.30;;;25.33;;
41333;SDS011;27078;46.428;6.256;2023-02-11T16:18:36;43.30;;;26.15;;
41333;SDS011;27078;46.428;6.256;2023-02-11T16:21:03;43.58;;;26.35;;
41333;SDS011;27078;46.428;6.256;2023-02-11T16:23:31;43.60;;;24.92;;
41333;SDS011;27078;46.428;6.256;2023-02-11T16:26:00;42.03;;;25.95;;
41333;SDS011;27078;46.428;6.256;2023-02-11T16:28:31;42.63;;;25.33;;
41333;SDS011;27078;46.428;6.256;2023-02-11T16:30:57;42.13;;;25.30;;
41333;SDS011;27078;46.428;6.256;2023-02-11T16:33:22;42.22;;;24.98;;
41333;SDS011;27078;46.428;6.256;2023-02-11T16:35:48;42.22;;;25.58;;
41333;SDS011;27078;46.428;6.256;2023-02-11T16:38:14;43.45;;;25.77;;
41333;SDS011;27078;46.428;6.256;2023-02-11T16:40:40;44.53;;;26.15;;
41333;SDS011;27078;46.428;6.256;2023-02-11T16:43:08;43.85;;;25.88;;
41333;SDS011;27078;46.428;6.256;2023-02-11T16:45:35;47.55;;;26.83;;
41333;SDS011;27078;46.428;6.256;2023-02-11T16:48:04;47.63;;;27.45;;
41333;SDS011;27078;46.428;6.256;2023-02-11T16:50:31;45.58;;;27.08;;
41333;SDS011;27078;46.428;6.256;2023-02-11T16:52:57;45.25;;;25.80;;
41333;SDS011;27078;46.428;6.256;2023-02-11T16:55:23;46.40;;;27.42;;
41333;SDS011;27078;46.428;6.256;2023-02-11T16:57:49;47.47;;;26.45;;
41333;SDS011;27078;46.428;6.256;2023-02-11T17:00:14;46.95;;;26.50;;
41333;SDS011;27078;46.428;6.256;2023-02-11T17:02:40;46.53;;;27.10;;
41333;SDS011;27078;46.428;6.256;2023-02-11T17:05:06;45.63;;;27.00;;
41333;SDS011;27078;46.428;6.256;2023-02-11T17:07:39;45.30;;;26.23;;
41333;SDS011;27078;46.428;6.256;2023-02-11T17:10:12;47.45;;;26.63;;
41333;SDS011;27078;46.428;6.256;2023-02-11T17:12:41;51.85;;;28.90;;
41333;SDS011;27078;46.428;6.256;2023-02-11T17:15:07;45.72;;;26.95;;
41333;SDS011;27078;46.428;6.256;2023-02-11T17:17:33;47.83;;;27.85;;
41333;SDS011;27078;46.428;6.256;2023-02-11T17:19:58;47.33;;;26.45;;
41333;SDS011;27078;46.428;6.256;2023-02-11T17:22:23;50.15;;;28.45;;
41333;SDS011;27078;46.428;6.256;2023-02-11T17:24:49;51.80;;;28.38;;